Time;durP1;ratioP1;P1;durP2;ratioP2;P2;SDS_P1;SDS_P2;PMS_P1;PMS_P2;Temp;Humidity;BMP_temperature;BMP_pressure;BME280_temperature;BME280_humidity;BME280_pressure;Samples;Min_cycle;Max_cycle;Signal;HPM_P1;HPM_P2
2021/08/25 06:48:12;;;;;;;0.40;0.40;;;11.10;99.90;;;;;;5336125;23;21697;-95
2021/08/25 07:12:00;;;;;;;1.90;1.10;;;12.30;99.90;;;;;;5715375;23;20625;-93
2021/08/25 07:14:31;;;;;;;0.30;0.30;;;12.70;99.90;;;;;;4942904;29;20453;-96
2021/08/25 07:36:34;;;;;;;0.32;0.32;;;13.40;99.90;;;;;;4996157;23;20422;-96
2021/08/25 07:39:26;;;;;;;0.73;0.73;;;13.40;99.90;;;;;;4878354;29;20440;-95
2021/08/25 07:41:54;;;;;;;1.55;1.02;;;13.30;99.90;;;;;;4874621;29;20873;-96
2021/08/25 07:44:21;;;;;;;0.60;0.60;;;13.50;99.90;;;;;;4870576;29;20447;-96
2021/08/25 07:46:49;;;;;;;0.30;0.30;;;13.50;99.90;;;;;;4870587;29;20440;-96
2021/08/25 07:49:16;;;;;;;0.30;0.30;;;13.50;99.90;;;;;;4869610;29;20459;-96
2021/08/25 07:51:43;;;;;;;0.10;0.10;;;13.60;99.90;;;;;;4869291;29;20439;-96
2021/08/25 07:54:10;;;;;;;0.40;0.40;;;13.50;99.90;;;;;;4870881;29;20538;-96
2021/08/25 07:56:38;;;;;;;1.93;0.40;;;13.50;99.90;;;;;;4885565;29;20434;-95
2021/08/25 08:03:05;;;;;;;0.30;0.30;;;13.70;99.90;;;;;;4969945;28;20436;-96
2021/08/25 08:05:46;;;;;;;0.25;0.25;;;13.60;99.90;;;;;;4952433;29;20897;-96
2021/08/25 08:08:26;;;;;;;0.37;0.37;;;13.60;99.90;;;;;;4952638;29;20453;-96
2021/08/25 08:11:08;;;;;;;0.30;0.30;;;13.70;99.90;;;;;;4951948;29;20410;-95
2021/08/25 08:13:36;;;;;;;0.40;0.40;;;13.90;99.90;;;;;;4950300;29;20448;-96
2021/08/25 08:16:20;;;;;;;0.20;0.20;;;13.90;99.90;;;;;;4952519;29;20469;-96
2021/08/25 08:19:17;;;;;;;4.20;0.90;;;13.90;99.90;;;;;;4949313;29;20941;-96
2021/08/25 08:21:45;;;;;;;0.20;0.20;;;14.10;99.90;;;;;;4948959;29;20751;-96
2021/08/25 08:24:43;;;;;;;0.17;0.17;;;14.20;99.90;;;;;;4948826;29;20451;-96
2021/08/25 09:23:37;;;;;;;0.40;0.40;;;16.30;99.90;;;;;;5972604;23;20379;-96
2021/08/25 12:41:43;;;;;;;0.20;0.20;;;19.00;99.90;;;;;;4564494;23;20718;-96
2021/08/25 12:45:07;;;;;;;1.40;0.40;;;18.40;99.00;;;;;;4902945;29;21182;-94
2021/08/25 12:47:57;;;;;;;0.20;0.20;;;18.10;99.90;;;;;;4899807;29;20459;-95
2021/08/25 12:51:18;;;;;;;0.20;0.20;;;17.80;99.90;;;;;;4905289;29;20464;-96
2021/08/25 12:55:10;;;;;;;;;;;;;;;;;;;;;
2021/08/25 13:01:50;;;;;;;0.30;0.30;;;19.90;98.90;;;;;;4889929;29;20392;-95
2021/08/25 13:04:18;;;;;;;0.20;0.20;;;20.80;97.10;;;;;;4865689;29;20437;-92
2021/08/25 13:06:45;;;;;;;0.10;0.10;;;20.20;98.30;;;;;;4864983;29;20432;-96
2021/08/25 13:09:12;;;;;;;0.13;0.13;;;19.60;98.30;;;;;;4865160;29;20941;-94
2021/08/25 13:11:39;;;;;;;0.47;0.40;;;19.00;97.10;;;;;;4864718;29;20455;-93
2021/08/25 13:14:06;;;;;;;0.50;0.40;;;19.00;99.20;;;;;;4863946;29;20452;-94
2021/08/25 13:16:33;;;;;;;0.22;0.22;;;19.40;95.00;;;;;;4864496;29;20984;-94
2021/08/25 13:19:00;;;;;;;0.10;0.10;;;20.10;98.20;;;;;;4872154;29;20433;-93
2021/08/25 13:21:27;;;;;;;0.85;0.82;;;21.00;92.50;;;;;;4881283;29;20433;-92
2021/08/25 13:23:54;;;;;;;0.10;0.10;;;20.70;96.30;;;;;;4881535;29;20432;-96
2021/08/25 13:26:21;;;;;;;0.30;0.30;;;20.50;92.90;;;;;;4881362;29;20424;-93
2021/08/25 13:28:49;;;;;;;0.30;0.30;;;19.80;96.70;;;;;;4880377;29;20436;-93
2021/08/25 13:31:16;;;;;;;0.90;0.90;;;19.20;98.60;;;;;;4881393;29;20451;-94
2021/08/25 13:33:44;;;;;;;1.25;0.90;;;18.90;98.50;;;;;;4879710;29;20441;-93
2021/08/25 13:36:12;;;;;;;0.80;0.20;;;18.70;99.00;;;;;;4880306;29;20437;-93
2021/08/25 13:38:39;;;;;;;0.40;0.40;;;18.40;99.90;;;;;;4880345;29;20566;-93
2021/08/25 13:41:06;;;;;;;0.30;0.30;;;18.10;99.90;;;;;;4880501;29;20437;-93
2021/08/25 13:43:34;;;;;;;0.20;0.20;;;18.00;98.90;;;;;;4880331;29;20437;-91
2021/08/25 13:46:01;;;;;;;0.60;0.60;;;18.20;99.90;;;;;;4880212;29;20433;-92
2021/08/25 13:48:28;;;;;;;1.20;1.00;;;18.90;99.90;;;;;;4880292;29;20436;-92
2021/08/25 13:50:55;;;;;;;0.28;0.28;;;20.00;99.90;;;;;;4880444;29;20443;-94
2021/08/25 13:53:22;;;;;;;0.40;0.40;;;20.70;98.60;;;;;;4880818;29;20509;-93
2021/08/25 13:55:49;;;;;;;0.22;0.22;;;21.30;98.80;;;;;;4880212;29;20444;-92
2021/08/25 13:58:16;;;;;;;0.10;0.10;;;21.30;95.10;;;;;;4895287;29;20433;-93
2021/08/25 14:00:43;;;;;;;1.40;0.65;;;21.30;98.80;;;;;;4881976;29;20444;-92
2021/08/25 14:03:11;;;;;;;0.20;0.20;;;21.40;97.40;;;;;;4880057;29;20439;-92
2021/08/25 14:05:38;;;;;;;0.22;0.22;;;21.10;93.30;;;;;;4882453;29;20839;-92
2021/08/25 14:08:05;;;;;;;0.20;0.20;;;20.50;95.00;;;;;;4881914;29;20492;-94
2021/08/25 14:10:32;;;;;;;0.10;0.10;;;20.00;97.20;;;;;;4880068;29;20437;-91
2021/08/25 14:13:00;;;;;;;0.13;0.13;;;20.00;96.20;;;;;;4892927;29;20484;-92
2021/08/25 14:15:32;;;;;;;0.10;0.10;;;20.50;97.70;;;;;;4891568;29;20891;-92
2021/08/25 14:18:01;;;;;;;0.10;0.10;;;20.50;96.90;;;;;;4895462;29;20488;-91
2021/08/25 14:20:28;;;;;;;7.32;3.53;;;20.90;97.80;;;;;;4880743;29;20440;-92
2021/08/25 14:22:55;;;;;;;6.15;3.47;;;20.90;95.40;;;;;;4880597;29;20440;-92
2021/08/25 14:25:22;;;;;;;6.70;3.55;;;20.30;95.90;;;;;;4879719;29;20437;-92
2021/08/25 14:27:49;;;;;;;5.72;3.50;;;20.40;97.60;;;;;;4879751;29;20831;-92
2021/08/25 14:30:16;;;;;;;6.28;3.47;;;20.60;96.10;;;;;;4880019;29;20440;-91
2021/08/25 14:32:43;;;;;;;6.70;3.47;;;20.60;96.70;;;;;;4879597;29;20944;-95
2021/08/25 14:35:11;;;;;;;5.35;3.47;;;20.00;97.10;;;;;;4880114;29;20478;-92
2021/08/25 14:37:38;;;;;;;7.30;3.50;;;19.80;96.80;;;;;;4879657;29;20425;-91
2021/08/25 14:40:06;;;;;;;7.55;3.72;;;19.20;97.10;;;;;;4879329;29;20440;-92
2021/08/25 14:42:33;;;;;;;8.15;3.75;;;18.70;99.90;;;;;;4879190;29;20465;-91
2021/08/25 14:45:00;;;;;;;9.90;3.75;;;18.30;99.20;;;;;;4894519;29;20971;-92
2021/08/25 14:47:38;;;;;;;7.93;3.78;;;18.00;99.90;;;;;;4879999;29;20469;-92
2021/08/25 14:50:05;;;;;;;6.37;3.60;;;17.90;99.90;;;;;;4879946;29;20440;-91
2021/08/25 14:52:33;;;;;;;6.05;3.47;;;18.10;99.00;;;;;;4879365;29;20439;-91
2021/08/25 14:54:59;;;;;;;7.68;3.40;;;19.20;98.10;;;;;;4879156;29;20838;-91
2021/08/25 14:57:29;;;;;;;5.73;3.33;;;20.30;97.70;;;;;;4879763;29;20815;-92
2021/08/25 14:59:56;;;;;;;8.18;3.42;;;21.60;98.10;;;;;;4880294;29;20500;-90
2021/08/25 15:02:27;;;;;;;6.80;3.58;;;22.30;94.10;;;;;;4890140;29;20449;-91
2021/08/25 15:04:54;;;;;;;6.47;3.60;;;22.70;92.50;;;;;;4883790;29;20519;-96
2021/08/25 15:07:21;;;;;;;6.72;3.65;;;22.80;92.20;;;;;;4885802;29;20921;-95
2021/08/25 15:09:49;;;;;;;5.82;3.70;;;22.90;90.20;;;;;;4879811;29;20444;-91
2021/08/25 15:12:16;;;;;;;7.10;3.73;;;23.10;87.10;;;;;;4879534;29;20441;-90
2021/08/25 15:14:43;;;;;;;5.90;3.53;;;23.20;87.80;;;;;;4884923;29;20448;-96
2021/08/25 15:17:13;;;;;;;6.20;3.53;;;23.50;85.90;;;;;;4883377;29;20789;-94
2021/08/25 15:19:59;;;;;;;5.60;3.42;;;23.40;91.90;;;;;;4881600;29;20556;-93
2021/08/25 15:22:37;;;;;;;6.25;3.80;;;23.50;89.00;;;;;;4879781;29;20511;-94
2021/08/25 15:25:45;;;;;;;6.20;3.53;;;23.60;92.30;;;;;;4879178;29;20463;-94
2021/08/25 15:28:17;;;;;;;8.07;3.42;;;23.30;86.10;;;;;;4879016;29;20975;-94
2021/08/25 15:31:14;;;;;;;5.28;3.40;;;23.30;86.30;;;;;;4878846;29;21007;-93
2021/08/25 15:33:41;;;;;;;6.32;3.50;;;23.60;78.40;;;;;;4879506;29;20433;-94
2021/08/25 15:36:13;;;;;;;7.60;3.50;;;23.80;83.60;;;;;;4879307;29;20452;-94
2021/08/25 15:38:43;;;;;;;6.07;3.42;;;23.60;82.00;;;;;;4879667;29;20436;-94
2021/08/25 15:41:34;;;;;;;7.40;3.50;;;23.70;79.00;;;;;;4880543;29;20519;-95
2021/08/25 15:44:06;;;;;;;7.35;3.80;;;23.60;79.90;;;;;;4894773;29;20428;-94
2021/08/25 15:46:37;;;;;;;5.30;3.80;;;23.60;83.60;;;;;;4895901;29;20440;-96
2021/08/25 15:49:04;;;;;;;8.52;3.92;;;23.40;82.60;;;;;;4895594;29;20443;-95
2021/08/25 15:51:32;;;;;;;5.97;3.97;;;23.20;83.80;;;;;;4880328;29;20433;-94
2021/08/25 15:53:59;;;;;;;7.65;3.85;;;23.10;84.20;;;;;;4881771;29;20464;-95
2021/08/25 15:56:29;;;;;;;11.05;3.97;;;23.40;80.80;;;;;;4895998;29;20420;-95
2021/08/25 15:58:56;;;;;;;6.57;4.13;;;23.30;82.70;;;;;;4892080;29;20465;-96
2021/08/25 16:01:23;;;;;;;7.72;4.20;;;22.90;80.10;;;;;;4882370;29;20443;-95
2021/08/25 16:03:50;;;;;;;6.22;4.10;;;22.90;80.90;;;;;;4882200;29;20432;-95
2021/08/25 16:06:19;;;;;;;9.20;4.50;;;23.00;82.60;;;;;;4882230;29;20432;-94
2021/08/25 16:08:46;;;;;;;6.90;3.95;;;22.90;84.20;;;;;;4882748;29;20467;-94
2021/08/25 16:11:13;;;;;;;10.38;4.47;;;22.70;84.80;;;;;;4882286;29;20491;-96
2021/08/25 16:13:41;;;;;;;6.90;4.25;;;21.70;87.10;;;;;;4881404;29;20440;-96
2021/08/25 16:16:08;;;;;;;7.93;4.40;;;20.80;90.80;;;;;;4882372;29;20459;-95
2021/08/25 16:18:39;;;;;;;8.45;4.40;;;20.60;92.20;;;;;;4882889;29;20777;-95
2021/08/25 16:21:06;;;;;;;7.03;4.43;;;20.80;93.60;;;;;;4882972;29;20443;-95
2021/08/25 16:23:33;;;;;;;7.70;4.30;;;20.80;90.20;;;;;;4882678;29;20925;-95
2021/08/25 16:26:01;;;;;;;6.50;4.20;;;20.30;88.90;;;;;;4883746;29;20959;-94
2021/08/25 16:28:28;;;;;;;9.02;4.18;;;19.50;91.40;;;;;;4882058;29;20451;-95
2021/08/25 16:30:55;;;;;;;7.45;4.30;;;18.90;97.00;;;;;;4882406;29;20821;-95
2021/08/25 16:33:24;;;;;;;6.80;4.27;;;18.80;97.30;;;;;;4882291;29;20436;-94
2021/08/25 16:35:52;;;;;;;8.57;4.28;;;18.90;96.50;;;;;;4881405;29;20483;-95
2021/08/25 16:38:23;;;;;;;10.27;4.30;;;19.50;93.90;;;;;;4882163;29;20582;-94
2021/08/25 16:40:50;;;;;;;10.27;4.32;;;19.90;94.50;;;;;;4881978;29;20442;-96
2021/08/25 16:43:17;;;;;;;7.88;4.70;;;20.20;93.80;;;;;;4881569;29;20451;-95
2021/08/25 16:45:44;;;;;;;9.73;4.55;;;20.40;93.80;;;;;;4896863;29;20436;-95
2021/08/25 16:48:14;;;;;;;8.38;4.30;;;20.50;93.00;;;;;;4881539;29;20443;-96
2021/08/25 16:50:41;;;;;;;13.25;4.70;;;20.40;93.60;;;;;;4882648;29;20562;-93
2021/08/25 16:53:10;;;;;;;8.50;4.70;;;20.30;92.90;;;;;;4882402;29;20432;-96
2021/08/25 16:55:38;;;;;;;8.73;4.40;;;20.10;92.40;;;;;;4881982;29;20936;-95
2021/08/25 16:58:05;;;;;;;8.38;4.90;;;19.90;93.80;;;;;;4881461;29;20439;-93
2021/08/25 17:00:32;;;;;;;7.88;4.25;;;19.90;93.20;;;;;;4881401;29;20436;-94
2021/08/25 17:02:59;;;;;;;8.13;4.60;;;19.70;94.30;;;;;;4881282;29;20440;-95
2021/08/25 17:05:27;;;;;;;8.93;4.45;;;19.70;93.80;;;;;;4880967;29;20444;-94
2021/08/25 17:07:55;;;;;;;9.65;4.57;;;19.50;94.60;;;;;;4881158;29;20447;-95
2021/08/25 17:10:23;;;;;;;9.07;4.60;;;19.30;95.20;;;;;;4881123;29;20439;-94
2021/08/25 17:12:50;;;;;;;11.00;4.80;;;19.30;97.00;;;;;;4880744;29;20443;-95
2021/08/25 17:15:18;;;;;;;10.25;4.80;;;19.10;96.40;;;;;;4881479;29;20448;-94
2021/08/25 17:17:57;;;;;;;8.80;4.53;;;18.90;96.30;;;;;;4886620;29;20433;-96
2021/08/25 17:23:59;;;;;;;10.05;4.35;;;18.50;98.80;;;;;;4917773;23;20450;-95
2021/08/25 17:26:26;;;;;;;8.35;4.38;;;18.30;99.90;;;;;;4936988;29;20432;-94
2021/08/25 17:28:53;;;;;;;11.88;4.40;;;18.10;99.90;;;;;;4936864;29;20783;-94
2021/08/25 17:31:20;;;;;;;9.18;4.65;;;17.50;99.90;;;;;;4937361;29;20438;-95
2021/08/25 17:33:47;;;;;;;8.55;4.45;;;17.30;99.90;;;;;;4938282;29;20432;-96
2021/08/25 17:36:19;;;;;;;12.80;5.07;;;17.00;99.90;;;;;;4938411;29;20449;-93
2021/08/25 17:38:46;;;;;;;7.57;4.70;;;16.50;99.90;;;;;;4945407;29;20419;-95
2021/08/25 17:41:14;;;;;;;7.80;4.70;;;16.20;99.90;;;;;;4953520;29;20921;-95
2021/08/25 17:43:41;;;;;;;8.35;4.68;;;15.80;99.90;;;;;;4939347;29;20454;-94
2021/08/25 17:46:08;;;;;;;12.07;4.95;;;15.60;99.90;;;;;;4938401;29;20954;-95
2021/08/25 17:48:35;;;;;;;9.98;4.78;;;15.20;99.90;;;;;;4936780;29;20459;-93
2021/08/25 17:51:02;;;;;;;10.57;5.28;;;14.90;99.90;;;;;;4937269;29;20428;-94
2021/08/25 17:53:30;;;;;;;8.93;4.93;;;14.40;99.90;;;;;;4936455;29;20438;-93
2021/08/25 17:56:00;;;;;;;11.60;5.33;;;14.10;99.90;;;;;;4936589;29;20451;-93
2021/08/25 17:58:30;;;;;;;7.47;4.63;;;13.70;99.90;;;;;;4936565;29;20436;-94
2021/08/25 18:00:57;;;;;;;9.47;4.97;;;13.40;99.90;;;;;;4936686;29;20447;-93
2021/08/25 18:03:25;;;;;;;9.73;5.35;;;13.10;99.90;;;;;;4936772;29;20431;-94
2021/08/25 18:05:52;;;;;;;9.65;4.97;;;12.80;99.90;;;;;;4936381;29;20832;-94
2021/08/25 18:08:19;;;;;;;12.20;5.85;;;12.60;99.90;;;;;;4936540;29;20428;-93
2021/08/25 18:10:46;;;;;;;9.20;5.47;;;12.30;99.90;;;;;;4936839;29;20438;-93
2021/08/25 18:13:13;;;;;;;10.65;5.28;;;12.10;99.90;;;;;;4936175;29;20439;-92
2021/08/25 18:15:40;;;;;;;9.40;6.03;;;11.80;99.90;;;;;;4936223;29;20454;-94
2021/08/25 18:18:07;;;;;;;10.82;6.00;;;11.40;99.90;;;;;;4936276;29;20459;-93
2021/08/25 18:20:34;;;;;;;10.35;5.82;;;11.30;99.90;;;;;;4936402;29;20438;-92
2021/08/25 18:23:02;;;;;;;12.70;6.05;;;11.30;99.90;;;;;;4936333;29;20911;-95
2021/08/25 18:25:29;;;;;;;12.33;6.00;;;11.10;99.90;;;;;;4938541;29;20424;-95
2021/08/25 18:27:56;;;;;;;10.70;6.50;;;10.90;99.90;;;;;;4938399;29;20432;-95
2021/08/25 18:30:33;;;;;;;11.03;6.20;;;10.80;99.90;;;;;;4938656;29;20438;-96
2021/08/25 18:33:28;;;;;;;11.77;6.60;;;10.70;99.90;;;;;;4948413;29;20506;-96
2021/08/25 18:36:07;;;;;;;10.77;6.07;;;10.70;99.90;;;;;;4945984;29;20479;-96
2021/08/25 18:38:50;;;;;;;14.32;6.75;;;10.60;99.90;;;;;;4945114;29;20462;-96
2021/08/25 18:41:19;;;;;;;13.23;6.65;;;10.50;99.90;;;;;;4944705;29;20455;-94
2021/08/25 18:43:46;;;;;;;13.27;6.60;;;10.40;99.90;;;;;;4937717;29;20490;-95
2021/08/25 18:46:14;;;;;;;11.00;6.40;;;10.30;99.90;;;;;;4938264;29;20443;-94
2021/08/25 18:48:41;;;;;;;13.27;7.28;;;10.20;99.90;;;;;;4936521;29;20784;-94
2021/08/25 18:51:08;;;;;;;12.38;7.00;;;10.20;99.90;;;;;;4936936;29;20518;-95
2021/08/25 18:53:35;;;;;;;12.50;6.10;;;10.20;99.90;;;;;;4937025;29;20424;-95
2021/08/25 18:56:03;;;;;;;9.50;6.60;;;10.10;99.90;;;;;;4937798;29;20450;-94
2021/08/25 18:58:30;;;;;;;13.07;6.55;;;10.00;99.90;;;;;;4936461;29;20432;-94
2021/08/25 19:01:06;;;;;;;12.27;7.15;;;10.00;99.90;;;;;;4941576;29;20874;-96
2021/08/25 19:03:55;;;;;;;14.18;7.82;;;9.90;99.90;;;;;;4948855;29;20502;-96
2021/08/25 19:06:25;;;;;;;13.30;8.05;;;9.90;99.90;;;;;;4947085;29;20498;-96
2021/08/25 19:08:55;;;;;;;12.98;7.72;;;10.00;99.90;;;;;;4944659;29;20455;-96
2021/08/25 19:11:22;;;;;;;13.43;8.05;;;9.90;99.90;;;;;;4927230;29;20435;-96
2021/08/25 19:13:57;;;;;;;13.23;7.60;;;9.90;99.90;;;;;;4944969;29;20513;-96
2021/08/25 19:16:28;;;;;;;14.07;8.07;;;9.90;99.90;;;;;;4944044;29;20447;-96
2021/08/25 19:18:57;;;;;;;15.25;7.20;;;9.90;99.90;;;;;;4930477;29;20434;-96
2021/08/25 19:21:29;;;;;;;15.07;7.38;;;9.80;99.90;;;;;;4947016;29;20516;-96
2021/08/25 19:24:05;;;;;;;11.55;7.43;;;9.90;99.90;;;;;;4957487;29;20423;-96
2021/08/25 19:26:35;;;;;;;13.50;7.30;;;9.80;99.90;;;;;;4948230;29;20415;-96
2021/08/25 19:29:03;;;;;;;13.70;7.27;;;9.80;99.90;;;;;;4941575;29;20442;-96
2021/08/25 19:31:34;;;;;;;11.17;7.07;;;9.80;99.90;;;;;;4947165;29;20435;-96
2021/08/25 19:34:02;;;;;;;14.23;7.22;;;9.70;99.90;;;;;;4948780;29;20502;-96
2021/08/25 19:36:29;;;;;;;12.18;6.75;;;9.70;99.90;;;;;;4944978;29;20526;-96
2021/08/25 19:38:58;;;;;;;16.98;7.95;;;9.60;99.90;;;;;;4943028;29;20423;-96
2021/08/25 19:41:25;;;;;;;11.80;7.32;;;9.60;99.90;;;;;;4944337;29;20787;-96
2021/08/25 19:43:56;;;;;;;12.10;7.10;;;9.50;99.90;;;;;;4945288;29;20462;-96
2021/08/25 19:46:25;;;;;;;12.40;7.00;;;9.40;99.90;;;;;;4936495;29;20530;-96
2021/08/25 19:48:55;;;;;;;15.88;7.38;;;9.50;99.90;;;;;;4935250;29;20428;-96
2021/08/25 19:51:59;;;;;;;12.15;7.55;;;9.40;99.90;;;;;;4951007;28;20450;-96
2021/08/25 19:54:47;;;;;;;13.77;7.65;;;9.50;99.90;;;;;;4951165;23;20449;-95
2021/08/25 19:57:30;;;;;;;14.43;7.70;;;9.50;99.90;;;;;;4932908;29;20427;-96
2021/08/25 20:00:02;;;;;;;12.95;7.20;;;9.40;99.90;;;;;;4932469;29;20436;-96
2021/08/25 20:02:49;;;;;;;12.98;7.20;;;9.40;99.90;;;;;;4936100;29;20419;-96
2021/08/25 20:05:17;;;;;;;15.57;7.22;;;9.40;99.90;;;;;;4935160;29;20451;-96
2021/08/25 20:07:50;;;;;;;13.43;7.63;;;9.40;99.90;;;;;;4920100;29;20443;-96
2021/08/25 20:10:42;;;;;;;14.18;7.78;;;9.40;99.90;;;;;;4936786;29;20442;-96
2021/08/25 20:13:15;;;;;;;13.00;7.00;;;9.40;99.90;;;;;;4944952;29;20788;-96
2021/08/25 20:15:46;;;;;;;12.55;6.40;;;9.50;99.90;;;;;;4929998;29;20435;-96
2021/08/25 20:18:25;;;;;;;11.63;6.60;;;9.70;99.90;;;;;;4947519;29;20435;-96
2021/08/25 20:21:12;;;;;;;11.00;6.47;;;9.90;99.90;;;;;;4934638;29;20411;-96
2021/08/25 20:23:41;;;;;;;13.27;6.43;;;10.20;99.90;;;;;;4918152;29;21248;-96
2021/08/25 20:26:09;;;;;;;12.32;6.35;;;10.40;99.90;;;;;;4928873;29;20488;-96
2021/08/25 20:28:40;;;;;;;11.60;5.90;;;10.50;99.90;;;;;;4929484;29;20499;-96
2021/08/25 20:31:08;;;;;;;12.18;5.97;;;10.50;99.90;;;;;;4929114;29;20507;-96
2021/08/25 20:33:36;;;;;;;11.43;6.22;;;10.60;99.90;;;;;;4928264;29;20430;-96
2021/08/25 20:36:05;;;;;;;11.73;5.57;;;10.70;99.90;;;;;;4926806;29;20528;-96
2021/08/25 20:38:32;;;;;;;11.10;6.05;;;10.90;99.90;;;;;;4927074;29;20431;-96
2021/08/25 20:40:59;;;;;;;9.60;5.87;;;10.90;99.90;;;;;;4926122;29;20436;-96
2021/08/25 20:43:28;;;;;;;11.55;6.13;;;10.80;99.90;;;;;;4928460;29;20459;-96
2021/08/25 20:45:56;;;;;;;10.55;5.90;;;10.80;99.90;;;;;;4926506;29;20510;-96
2021/08/25 20:48:23;;;;;;;13.20;5.90;;;10.80;99.90;;;;;;4925524;29;20935;-96
2021/08/25 20:50:52;;;;;;;12.93;6.05;;;10.80;99.90;;;;;;4926212;29;20438;-96
2021/08/25 20:53:25;;;;;;;12.98;5.93;;;10.90;99.90;;;;;;4941186;29;20797;-96
2021/08/25 20:55:53;;;;;;;12.23;6.22;;;10.90;99.90;;;;;;4926876;29;20442;-96
2021/08/25 20:58:23;;;;;;;13.23;5.65;;;10.90;99.90;;;;;;4924600;29;20514;-96
2021/08/25 21:00:52;;;;;;;10.13;6.28;;;10.90;99.90;;;;;;4913207;29;20426;-96
2021/08/25 21:03:22;;;;;;;10.90;5.75;;;11.00;99.90;;;;;;4910883;29;20436;-96
2021/08/25 21:05:55;;;;;;;9.90;5.90;;;11.10;99.90;;;;;;4937447;29;20455;-96
2021/08/25 21:08:24;;;;;;;9.98;5.72;;;11.10;99.90;;;;;;4940838;29;20439;-96
2021/08/25 21:11:34;;;;;;;10.07;6.30;;;11.10;99.90;;;;;;4832295;29;20428;-96
2021/08/25 21:14:11;;;;;;;11.67;5.93;;;11.10;99.90;;;;;;4859942;29;20453;-96
2021/08/25 21:16:51;;;;;;;12.80;6.23;;;11.20;99.90;;;;;;4843238;29;20452;-96
2021/08/25 21:19:37;;;;;;;9.40;5.60;;;11.30;99.90;;;;;;4843262;29;20436;-96
2021/08/25 21:22:10;;;;;;;11.83;5.87;;;11.30;99.90;;;;;;4849772;29;20514;-96
2021/08/25 21:24:38;;;;;;;12.50;5.73;;;11.40;99.90;;;;;;4847728;29;20932;-96
2021/08/25 21:27:07;;;;;;;15.27;5.87;;;11.30;99.90;;;;;;4816979;29;20494;-96
2021/08/25 21:29:36;;;;;;;10.32;5.70;;;11.40;99.90;;;;;;4883835;29;20435;-96
2021/08/25 21:32:17;;;;;;;12.88;5.80;;;11.40;99.90;;;;;;4893136;29;20439;-96
2021/08/25 21:35:01;;;;;;;10.52;5.47;;;11.40;99.90;;;;;;4908627;29;20495;-96
2021/08/25 21:38:02;;;;;;;9.88;5.70;;;11.50;99.90;;;;;;4889598;29;20459;-96
2021/08/25 21:40:58;;;;;;;11.30;5.80;;;11.40;99.90;;;;;;4892097;29;20423;-96
2021/08/25 21:44:04;;;;;;;11.48;5.82;;;11.40;99.90;;;;;;4887157;29;20523;-96
2021/08/25 21:46:49;;;;;;;10.80;5.80;;;11.40;99.90;;;;;;4869033;29;20445;-96
2021/08/25 21:49:22;;;;;;;13.98;6.05;;;11.40;99.90;;;;;;4885649;29;20531;-96
2021/08/25 21:51:51;;;;;;;9.52;5.45;;;11.30;99.90;;;;;;4891444;29;20470;-96
2021/08/25 21:54:19;;;;;;;14.05;6.00;;;11.40;99.90;;;;;;4887823;29;20786;-96
2021/08/25 21:56:58;;;;;;;16.10;6.30;;;11.40;99.90;;;;;;4907712;29;20988;-96
2021/08/25 21:59:41;;;;;;;13.57;5.78;;;11.40;99.90;;;;;;4921458;29;20457;-96
2021/08/25 22:05:25;;;;;;;11.02;5.97;;;11.50;99.90;;;;;;4923156;29;20424;-97
2021/08/25 22:07:54;;;;;;;10.13;5.97;;;11.50;99.90;;;;;;4921175;29;20432;-96
2021/08/25 22:10:28;;;;;;;11.18;5.65;;;11.60;99.90;;;;;;4922679;29;20429;-96
2021/08/25 22:13:15;;;;;;;10.10;5.30;;;11.50;99.90;;;;;;4921591;29;20436;-96
2021/08/25 22:15:42;;;;;;;14.60;5.78;;;11.50;99.90;;;;;;4919049;29;20600;-96
2021/08/25 22:18:14;;;;;;;10.73;5.55;;;11.50;99.90;;;;;;4919850;29;20437;-96
2021/08/25 22:20:42;;;;;;;10.73;5.25;;;11.50;99.90;;;;;;4921320;29;20429;-96
2021/08/25 22:23:09;;;;;;;13.38;5.55;;;11.50;99.90;;;;;;4919633;29;20433;-96
2021/08/25 22:25:36;;;;;;;9.90;5.63;;;11.40;99.90;;;;;;4920070;29;20435;-96
2021/08/25 22:28:06;;;;;;;10.43;5.60;;;11.40;99.90;;;;;;4920526;29;20964;-96
2021/08/25 22:30:36;;;;;;;10.80;5.53;;;11.40;99.90;;;;;;4929513;29;20433;-96
2021/08/25 22:33:07;;;;;;;10.52;5.45;;;11.40;99.90;;;;;;4940330;29;20760;-96
2021/08/25 22:35:45;;;;;;;12.40;5.83;;;11.40;99.90;;;;;;4941936;29;20431;-96
2021/08/25 22:38:23;;;;;;;13.32;5.88;;;11.50;99.90;;;;;;4942024;29;20448;-96
2021/08/25 22:40:51;;;;;;;8.85;5.30;;;11.40;99.90;;;;;;4925937;29;20428;-96
2021/08/25 22:43:26;;;;;;;9.68;5.90;;;11.40;99.90;;;;;;4940882;29;20432;-96
2021/08/25 22:46:08;;;;;;;10.40;5.53;;;11.40;99.90;;;;;;4942351;29;20427;-96
2021/08/25 22:48:41;;;;;;;10.05;5.43;;;11.40;99.90;;;;;;4948584;29;20414;-96
2021/08/25 22:51:19;;;;;;;9.33;5.73;;;11.40;99.90;;;;;;4938305;29;20754;-96
2021/08/25 22:53:49;;;;;;;10.63;5.88;;;11.50;99.90;;;;;;4942912;29;20466;-96
2021/08/25 22:56:37;;;;;;;10.98;5.45;;;11.40;99.90;;;;;;4942570;29;20487;-96
2021/08/25 22:59:37;;;;;;;9.18;5.35;;;11.50;99.90;;;;;;4899931;29;20515;-95
2021/08/25 23:02:23;;;;;;;8.90;4.93;;;11.50;99.90;;;;;;4942092;29;20416;-96
2021/08/25 23:04:54;;;;;;;9.07;5.30;;;11.50;99.90;;;;;;4941583;29;20998;-96
2021/08/25 23:07:25;;;;;;;9.18;5.45;;;11.50;99.90;;;;;;4942752;29;21034;-96
2021/08/25 23:09:56;;;;;;;9.95;5.53;;;11.60;99.90;;;;;;4943934;29;20585;-96
2021/08/25 23:12:26;;;;;;;10.20;5.38;;;11.60;99.90;;;;;;4945180;29;20458;-96
2021/08/25 23:14:56;;;;;;;9.93;5.50;;;11.60;99.90;;;;;;4928873;29;20931;-96
2021/08/25 23:17:23;;;;;;;12.83;5.47;;;11.60;99.90;;;;;;4944165;29;20506;-96
2021/08/25 23:19:51;;;;;;;11.03;5.53;;;11.60;99.90;;;;;;4943783;29;20431;-96
2021/08/25 23:22:18;;;;;;;8.40;5.22;;;11.60;99.90;;;;;;4927140;29;20435;-96
2021/08/25 23:24:46;;;;;;;11.63;5.18;;;11.60;99.90;;;;;;4944130;29;20459;-96
2021/08/25 23:27:15;;;;;;;10.40;5.03;;;11.60;99.90;;;;;;4942223;29;20435;-96
2021/08/25 23:29:45;;;;;;;12.83;5.47;;;11.60;99.90;;;;;;4941746;29;20438;-96
2021/08/25 23:32:27;;;;;;;8.05;5.00;;;11.60;99.90;;;;;;4941725;29;20601;-95
2021/08/25 23:34:57;;;;;;;9.02;5.20;;;11.60;99.90;;;;;;4942645;29;20419;-96
2021/08/25 23:37:26;;;;;;;10.88;5.53;;;11.60;99.90;;;;;;4927486;29;20450;-96
2021/08/25 23:40:09;;;;;;;10.17;5.10;;;11.60;99.90;;;;;;4927040;29;20428;-96
2021/08/25 23:42:51;;;;;;;9.18;4.72;;;11.60;99.90;;;;;;4900853;29;20503;-96
2021/08/25 23:45:24;;;;;;;10.73;5.57;;;11.50;99.90;;;;;;4943660;29;20463;-96
2021/08/25 23:48:06;;;;;;;9.15;5.20;;;11.60;99.90;;;;;;4930546;29;20455;-96
2021/08/25 23:50:39;;;;;;;11.23;5.60;;;11.50;99.90;;;;;;4945753;29;20504;-96
2021/08/25 23:53:28;;;;;;;11.27;5.57;;;11.60;99.90;;;;;;4947790;29;20907;-96
2021/08/25 23:56:13;;;;;;;7.95;5.00;;;11.50;99.90;;;;;;4946868;29;20435;-96
2021/08/25 23:59:02;;;;;;;11.30;5.30;;;11.50;99.90;;;;;;4946735;29;20451;-96
